sensor_id;sensor_type;location;lat;lon;timestamp;temperature;humidity
44271;DHT22;29963;44.594;11.368;2022-12-10T00:00:40;5.80;99.90
44271;DHT22;29963;44.594;11.368;2022-12-10T00:03:06;5.80;99.90
44271;DHT22;29963;44.594;11.368;2022-12-10T00:05:35;5.80;99.90
44271;DHT22;29963;44.594;11.368;2022-12-10T00:08:01;5.70;99.90
44271;DHT22;29963;44.594;11.368;2022-12-10T00:10:26;5.70;99.90
44271;DHT22;29963;44.594;11.368;2022-12-10T00:12:52;5.70;99.90
44271;DHT22;29963;44.594;11.368;2022-12-10T00:15:18;5.70;99.90
44271;DHT22;29963;44.594;11.368;2022-12-10T00:17:43;5.60;99.90
44271;DHT22;29963;44.594;11.368;2022-12-10T00:20:12;5.70;99.90
44271;DHT22;29963;44.594;11.368;2022-12-10T00:22:37;5.60;99.90
44271;DHT22;29963;44.594;11.368;2022-12-10T00:25:03;5.50;99.90
44271;DHT22;29963;44.594;11.368;2022-12-10T00:27:30;5.50;99.90
44271;DHT22;29963;44.594;11.368;2022-12-10T00:29:56;5.60;99.90
44271;DHT22;29963;44.594;11.368;2022-12-10T00:32:22;5.50;99.90
44271;DHT22;29963;44.594;11.368;2022-12-10T00:34:47;5.50;99.90
44271;DHT22;29963;44.594;11.368;2022-12-10T00:37:13;5.50;99.90
44271;DHT22;29963;44.594;11.368;2022-12-10T00:39:39;5.50;99.90
44271;DHT22;29963;44.594;11.368;2022-12-10T00:42:04;5.60;99.90
44271;DHT22;29963;44.594;11.368;2022-12-10T00:44:33;5.50;99.90
44271;DHT22;29963;44.594;11.368;2022-12-10T00:46:58;5.50;99.90
44271;DHT22;29963;44.594;11.368;2022-12-10T00:49:24;5.50;99.90
44271;DHT22;29963;44.594;11.368;2022-12-10T00:51:50;5.50;99.90
44271;DHT22;29963;44.594;11.368;2022-12-10T00:54:15;5.50;99.90
44271;DHT22;29963;44.594;11.368;2022-12-10T00:56:41;5.50;99.90
44271;DHT22;29963;44.594;11.368;2022-12-10T00:59:07;5.50;99.90
44271;DHT22;29963;44.594;11.368;2022-12-10T01:01:42;5.50;99.90
44271;DHT22;29963;44.594;11.368;2022-12-10T01:04:14;5.60;99.90
44271;DHT22;29963;44.594;11.368;2022-12-10T01:09:10;5.60;99.90
44271;DHT22;29963;44.594;11.368;2022-12-10T01:11:37;5.60;99.90
44271;DHT22;29963;44.594;11.368;2022-12-10T01:14:05;5.60;99.90
44271;DHT22;29963;44.594;11.368;2022-12-10T01:16:31;5.60;99.90
44271;DHT22;29963;44.594;11.368;2022-12-10T01:18:58;5.70;99.90
44271;DHT22;29963;44.594;11.368;2022-12-10T01:21:25;5.60;99.90
44271;DHT22;29963;44.594;11.368;2022-12-10T01:23:51;5.70;99.90
44271;DHT22;29963;44.594;11.368;2022-12-10T01:26:21;5.70;99.90
44271;DHT22;29963;44.594;11.368;2022-12-10T01:28:47;5.70;99.90
44271;DHT22;29963;44.594;11.368;2022-12-10T01:31:21;5.70;99.90
44271;DHT22;29963;44.594;11.368;2022-12-10T01:33:47;5.70;99.90
44271;DHT22;29963;44.594;11.368;2022-12-10T01:36:16;5.70;99.90
44271;DHT22;29963;44.594;11.368;2022-12-10T01:38:42;5.60;99.90
44271;DHT22;29963;44.594;11.368;2022-12-10T01:41:14;5.60;99.90
44271;DHT22;29963;44.594;11.368;2022-12-10T01:43:55;5.60;99.90
44271;DHT22;29963;44.594;11.368;2022-12-10T01:46:22;5.60;99.90
44271;DHT22;29963;44.594;11.368;2022-12-10T01:48:49;5.60;99.90
44271;DHT22;29963;44.594;11.368;2022-12-10T01:51:18;5.70;99.90
44271;DHT22;29963;44.594;11.368;2022-12-10T01:53:45;5.70;99.90
44271;DHT22;29963;44.594;11.368;2022-12-10T01:56:12;5.70;99.90
44271;DHT22;29963;44.594;11.368;2022-12-10T01:58:41;5.70;99.90
44271;DHT22;29963;44.594;11.368;2022-12-10T02:01:11;5.70;99.90
44271;DHT22;29963;44.594;11.368;2022-12-10T02:04:01;5.60;99.90
44271;DHT22;29963;44.594;11.368;2022-12-10T02:06:54;5.70;99.90
44271;DHT22;29963;44.594;11.368;2022-12-10T02:10:30;5.60;99.90
44271;DHT22;29963;44.594;11.368;2022-12-10T02:12:22;5.60;99.90
44271;DHT22;29963;44.594;11.368;2022-12-10T02:17:27;5.60;99.90
44271;DHT22;29963;44.594;11.368;2022-12-10T02:20:07;5.70;99.90
44271;DHT22;29963;44.594;11.368;2022-12-10T02:22:59;5.80;99.90
44271;DHT22;29963;44.594;11.368;2022-12-10T02:25:41;5.80;99.90
44271;DHT22;29963;44.594;11.368;2022-12-10T02:30:40;5.80;99.90
44271;DHT22;29963;44.594;11.368;2022-12-10T02:33:08;5.90;99.90
44271;DHT22;29963;44.594;11.368;2022-12-10T02:35:36;5.90;99.90
44271;DHT22;29963;44.594;11.368;2022-12-10T02:38:11;5.90;99.90
44271;DHT22;29963;44.594;11.368;2022-12-10T02:40:39;5.80;99.90
44271;DHT22;29963;44.594;11.368;2022-12-10T02:43:09;5.80;99.90
44271;DHT22;29963;44.594;11.368;2022-12-10T02:45:37;5.70;99.90
44271;DHT22;29963;44.594;11.368;2022-12-10T02:48:04;5.70;99.90
44271;DHT22;29963;44.594;11.368;2022-12-10T02:50:31;5.80;99.90
44271;DHT22;29963;44.594;11.368;2022-12-10T02:52:56;5.80;99.90
44271;DHT22;29963;44.594;11.368;2022-12-10T02:55:22;5.70;99.90
44271;DHT22;29963;44.594;11.368;2022-12-10T03:00:32;5.80;99.90
44271;DHT22;29963;44.594;11.368;2022-12-10T03:03:17;5.80;99.90
44271;DHT22;29963;44.594;11.368;2022-12-10T03:06:12;5.70;99.90
44271;DHT22;29963;44.594;11.368;2022-12-10T03:08:41;5.70;99.90
44271;DHT22;29963;44.594;11.368;2022-12-10T03:11:19;5.70;99.90
44271;DHT22;29963;44.594;11.368;2022-12-10T03:14:05;5.80;99.90
44271;DHT22;29963;44.594;11.368;2022-12-10T03:16:37;5.80;99.90
44271;DHT22;29963;44.594;11.368;2022-12-10T03:19:07;5.80;99.90
44271;DHT22;29963;44.594;11.368;2022-12-10T03:21:37;5.80;99.90
44271;DHT22;29963;44.594;11.368;2022-12-10T03:24:04;5.80;99.90
44271;DHT22;29963;44.594;11.368;2022-12-10T03:26:30;5.80;99.90
44271;DHT22;29963;44.594;11.368;2022-12-10T03:29:02;5.80;99.90
44271;DHT22;29963;44.594;11.368;2022-12-10T03:31:30;5.90;99.90
44271;DHT22;29963;44.594;11.368;2022-12-10T03:33:56;5.90;99.90
44271;DHT22;29963;44.594;11.368;2022-12-10T03:36:27;5.90;99.90
44271;DHT22;29963;44.594;11.368;2022-12-10T03:38:54;5.90;99.90
44271;DHT22;29963;44.594;11.368;2022-12-10T03:41:22;5.80;99.90
44271;DHT22;29963;44.594;11.368;2022-12-10T03:43:52;5.90;99.90
44271;DHT22;29963;44.594;11.368;2022-12-10T03:46:18;5.90;99.90
44271;DHT22;29963;44.594;11.368;2022-12-10T03:48:46;5.90;99.90
44271;DHT22;29963;44.594;11.368;2022-12-10T03:51:12;5.80;99.90
44271;DHT22;29963;44.594;11.368;2022-12-10T03:53:37;5.70;99.90
44271;DHT22;29963;44.594;11.368;2022-12-10T03:56:03;5.70;99.90
44271;DHT22;29963;44.594;11.368;2022-12-10T03:58:29;5.80;99.90
44271;DHT22;29963;44.594;11.368;2022-12-10T04:00:54;5.80;99.90
44271;DHT22;29963;44.594;11.368;2022-12-10T04:03:20;5.80;99.90
44271;DHT22;29963;44.594;11.368;2022-12-10T04:05:46;5.80;99.90
44271;DHT22;29963;44.594;11.368;2022-12-10T04:08:11;5.80;99.90
44271;DHT22;29963;44.594;11.368;2022-12-10T04:10:37;5.90;99.90
44271;DHT22;29963;44.594;11.368;2022-12-10T04:13:04;5.90;99.90
44271;DHT22;29963;44.594;11.368;2022-12-10T04:15:48;5.90;99.90
44271;DHT22;29963;44.594;11.368;2022-12-10T04:18:32;5.90;99.90
44271;DHT22;29963;44.594;11.368;2022-12-10T04:20:58;5.90;99.90
44271;DHT22;29963;44.594;11.368;2022-12-10T04:23:42;5.90;99.90
44271;DHT22;29963;44.594;11.368;2022-12-10T04:26:26;5.90;99.90
44271;DHT22;29963;44.594;11.368;2022-12-10T04:29:10;5.90;99.90
44271;DHT22;29963;44.594;11.368;2022-12-10T04:31:35;5.90;99.90
44271;DHT22;29963;44.594;11.368;2022-12-10T04:34:01;5.90;99.90
44271;DHT22;29963;44.594;11.368;2022-12-10T04:36:27;5.80;99.90
44271;DHT22;29963;44.594;11.368;2022-12-10T04:38:55;5.80;99.90
44271;DHT22;29963;44.594;11.368;2022-12-10T04:41:21;5.80;99.90
44271;DHT22;29963;44.594;11.368;2022-12-10T04:43:47;5.80;99.90
44271;DHT22;29963;44.594;11.368;2022-12-10T04:46:12;5.80;99.90
44271;DHT22;29963;44.594;11.368;2022-12-10T04:48:38;5.80;99.90
44271;DHT22;29963;44.594;11.368;2022-12-10T04:51:07;5.80;99.90
44271;DHT22;29963;44.594;11.368;2022-12-10T04:53:32;5.80;99.90
44271;DHT22;29963;44.594;11.368;2022-12-10T04:55:58;5.80;99.90
44271;DHT22;29963;44.594;11.368;2022-12-10T04:58:23;5.80;99.90
44271;DHT22;29963;44.594;11.368;2022-12-10T05:00:49;5.80;99.90
44271;DHT22;29963;44.594;11.368;2022-12-10T05:03:15;5.80;99.90
44271;DHT22;29963;44.594;11.368;2022-12-10T05:05:40;5.80;99.90
44271;DHT22;29963;44.594;11.368;2022-12-10T05:08:06;5.70;99.90
44271;DHT22;29963;44.594;11.368;2022-12-10T05:10:34;5.70;99.90
44271;DHT22;29963;44.594;11.368;2022-12-10T05:13:00;5.70;99.90
44271;DHT22;29963;44.594;11.368;2022-12-10T05:15:25;5.70;99.90
44271;DHT22;29963;44.594;11.368;2022-12-10T05:17:51;5.60;99.90
44271;DHT22;29963;44.594;11.368;2022-12-10T05:20:17;5.60;99.90
44271;DHT22;29963;44.594;11.368;2022-12-10T05:22:42;5.60;99.90
44271;DHT22;29963;44.594;11.368;2022-12-10T05:25:26;5.50;99.90
44271;DHT22;29963;44.594;11.368;2022-12-10T05:27:52;5.60;99.90
44271;DHT22;29963;44.594;11.368;2022-12-10T05:30:17;5.60;99.90
44271;DHT22;29963;44.594;11.368;2022-12-10T05:32:44;5.60;99.90
44271;DHT22;29963;44.594;11.368;2022-12-10T05:35:09;5.60;99.90
44271;DHT22;29963;44.594;11.368;2022-12-10T05:37:35;5.50;99.90
44271;DHT22;29963;44.594;11.368;2022-12-10T05:40:00;5.50;99.90
44271;DHT22;29963;44.594;11.368;2022-12-10T05:42:26;5.50;99.90
44271;DHT22;29963;44.594;11.368;2022-12-10T05:44:51;5.50;99.90
44271;DHT22;29963;44.594;11.368;2022-12-10T05:47:17;5.50;99.90
44271;DHT22;29963;44.594;11.368;2022-12-10T05:49:43;5.50;99.90
44271;DHT22;29963;44.594;11.368;2022-12-10T05:52:08;5.50;99.90
44271;DHT22;29963;44.594;11.368;2022-12-10T05:54:34;5.40;99.90
44271;DHT22;29963;44.594;11.368;2022-12-10T05:57:00;5.40;99.90
44271;DHT22;29963;44.594;11.368;2022-12-10T05:59:25;5.50;99.90
44271;DHT22;29963;44.594;11.368;2022-12-10T06:01:51;5.50;99.90
44271;DHT22;29963;44.594;11.368;2022-12-10T06:04:17;5.50;99.90
44271;DHT22;29963;44.594;11.368;2022-12-10T06:06:42;5.40;99.90
44271;DHT22;29963;44.594;11.368;2022-12-10T06:09:12;5.40;99.90
44271;DHT22;29963;44.594;11.368;2022-12-10T06:11:38;5.50;99.90
44271;DHT22;29963;44.594;11.368;2022-12-10T06:14:03;5.50;99.90
44271;DHT22;29963;44.594;11.368;2022-12-10T06:16:29;5.40;99.90
44271;DHT22;29963;44.594;11.368;2022-12-10T06:18:56;5.40;99.90
44271;DHT22;29963;44.594;11.368;2022-12-10T06:21:22;5.40;99.90
44271;DHT22;29963;44.594;11.368;2022-12-10T06:23:49;5.40;99.90
44271;DHT22;29963;44.594;11.368;2022-12-10T06:26:22;5.50;99.90
44271;DHT22;29963;44.594;11.368;2022-12-10T06:28:48;5.40;99.90
44271;DHT22;29963;44.594;11.368;2022-12-10T06:31:14;5.50;99.90
44271;DHT22;29963;44.594;11.368;2022-12-10T06:33:41;5.40;99.90
44271;DHT22;29963;44.594;11.368;2022-12-10T06:36:08;5.50;99.90
44271;DHT22;29963;44.594;11.368;2022-12-10T06:38:35;5.60;99.90
44271;DHT22;29963;44.594;11.368;2022-12-10T06:41:05;5.60;99.90
44271;DHT22;29963;44.594;11.368;2022-12-10T06:43:31;5.60;99.90
44271;DHT22;29963;44.594;11.368;2022-12-10T06:45:57;5.60;99.90
44271;DHT22;29963;44.594;11.368;2022-12-10T06:48:22;5.70;99.90
44271;DHT22;29963;44.594;11.368;2022-12-10T06:50:48;5.70;99.90
44271;DHT22;29963;44.594;11.368;2022-12-10T06:53:14;5.70;99.90
44271;DHT22;29963;44.594;11.368;2022-12-10T06:55:39;5.70;99.90
44271;DHT22;29963;44.594;11.368;2022-12-10T06:58:05;5.70;99.90
44271;DHT22;29963;44.594;11.368;2022-12-10T07:00:31;5.70;99.90
44271;DHT22;29963;44.594;11.368;2022-12-10T07:02:57;5.70;99.90
44271;DHT22;29963;44.594;11.368;2022-12-10T07:05:22;5.70;99.90
44271;DHT22;29963;44.594;11.368;2022-12-10T07:07:48;5.60;99.90
44271;DHT22;29963;44.594;11.368;2022-12-10T07:10:14;5.60;99.90
44271;DHT22;29963;44.594;11.368;2022-12-10T07:12:40;5.60;99.90
44271;DHT22;29963;44.594;11.368;2022-12-10T07:15:06;5.70;99.90
44271;DHT22;29963;44.594;11.368;2022-12-10T07:17:32;5.70;99.90
44271;DHT22;29963;44.594;11.368;2022-12-10T07:19:57;5.60;99.90
44271;DHT22;29963;44.594;11.368;2022-12-10T07:22:23;5.70;99.90
44271;DHT22;29963;44.594;11.368;2022-12-10T07:24:49;5.70;99.90
44271;DHT22;29963;44.594;11.368;2022-12-10T07:27:15;5.70;99.90
44271;DHT22;29963;44.594;11.368;2022-12-10T07:29:41;5.80;99.90
44271;DHT22;29963;44.594;11.368;2022-12-10T07:32:07;5.80;99.90
44271;DHT22;29963;44.594;11.368;2022-12-10T07:34:32;5.80;99.90
44271;DHT22;29963;44.594;11.368;2022-12-10T07:36:58;5.80;99.90
44271;DHT22;29963;44.594;11.368;2022-12-10T07:39:24;5.90;99.90
44271;DHT22;29963;44.594;11.368;2022-12-10T07:41:51;5.90;99.90
44271;DHT22;29963;44.594;11.368;2022-12-10T07:44:22;5.90;99.90
44271;DHT22;29963;44.594;11.368;2022-12-10T07:46:49;5.90;99.90
44271;DHT22;29963;44.594;11.368;2022-12-10T07:49:16;5.90;99.90
44271;DHT22;29963;44.594;11.368;2022-12-10T07:51:48;5.90;99.90
44271;DHT22;29963;44.594;11.368;2022-12-10T07:54:33;5.90;99.90
44271;DHT22;29963;44.594;11.368;2022-12-10T07:57:00;5.90;99.90
44271;DHT22;29963;44.594;11.368;2022-12-10T07:59:25;6.00;99.90
44271;DHT22;29963;44.594;11.368;2022-12-10T08:01:51;6.00;99.90
44271;DHT22;29963;44.594;11.368;2022-12-10T08:04:17;6.00;99.90
44271;DHT22;29963;44.594;11.368;2022-12-10T08:06:43;6.00;99.90
44271;DHT22;29963;44.594;11.368;2022-12-10T08:09:11;6.00;99.90
44271;DHT22;29963;44.594;11.368;2022-12-10T08:11:37;6.10;99.90
44271;DHT22;29963;44.594;11.368;2022-12-10T08:14:03;6.10;99.90
44271;DHT22;29963;44.594;11.368;2022-12-10T08:16:32;6.10;99.90
44271;DHT22;29963;44.594;11.368;2022-12-10T08:19:00;6.10;99.90
44271;DHT22;29963;44.594;11.368;2022-12-10T08:21:28;6.10;99.90
44271;DHT22;29963;44.594;11.368;2022-12-10T08:23:54;6.20;99.90
44271;DHT22;29963;44.594;11.368;2022-12-10T08:26:23;6.20;99.90
44271;DHT22;29963;44.594;11.368;2022-12-10T08:28:50;6.30;99.90
44271;DHT22;29963;44.594;11.368;2022-12-10T08:31:19;6.30;99.90
44271;DHT22;29963;44.594;11.368;2022-12-10T08:33:45;6.20;99.90
44271;DHT22;29963;44.594;11.368;2022-12-10T08:36:13;6.30;99.90
44271;DHT22;29963;44.594;11.368;2022-12-10T08:38:40;6.30;99.90
44271;DHT22;29963;44.594;11.368;2022-12-10T08:41:19;6.30;99.90
44271;DHT22;29963;44.594;11.368;2022-12-10T08:43:47;6.30;99.90
44271;DHT22;29963;44.594;11.368;2022-12-10T08:46:13;6.30;99.90
44271;DHT22;29963;44.594;11.368;2022-12-10T08:48:40;6.30;99.90
44271;DHT22;29963;44.594;11.368;2022-12-10T08:51:06;6.40;99.90
44271;DHT22;29963;44.594;11.368;2022-12-10T08:53:33;6.40;99.90
44271;DHT22;29963;44.594;11.368;2022-12-10T08:55:59;6.40;99.90
44271;DHT22;29963;44.594;11.368;2022-12-10T08:58:24;6.40;99.90
44271;DHT22;29963;44.594;11.368;2022-12-10T09:00:50;6.40;99.90
44271;DHT22;29963;44.594;11.368;2022-12-10T09:03:16;6.40;99.90
44271;DHT22;29963;44.594;11.368;2022-12-10T09:05:42;6.40;99.90
44271;DHT22;29963;44.594;11.368;2022-12-10T09:08:08;6.40;99.90
44271;DHT22;29963;44.594;11.368;2022-12-10T09:10:36;6.40;99.90
44271;DHT22;29963;44.594;11.368;2022-12-10T09:13:02;6.40;99.90
44271;DHT22;29963;44.594;11.368;2022-12-10T09:15:28;6.40;99.90
44271;DHT22;29963;44.594;11.368;2022-12-10T09:17:53;6.40;99.90
44271;DHT22;29963;44.594;11.368;2022-12-10T09:20:19;6.40;99.90
44271;DHT22;29963;44.594;11.368;2022-12-10T09:22:44;6.40;99.90
44271;DHT22;29963;44.594;11.368;2022-12-10T09:25:10;6.30;99.90
44271;DHT22;29963;44.594;11.368;2022-12-10T09:27:36;6.30;99.90
44271;DHT22;29963;44.594;11.368;2022-12-10T09:30:04;6.30;99.90
44271;DHT22;29963;44.594;11.368;2022-12-10T09:32:29;6.40;99.90
44271;DHT22;29963;44.594;11.368;2022-12-10T09:34:55;6.40;99.90
44271;DHT22;29963;44.594;11.368;2022-12-10T09:37:20;6.40;99.90
44271;DHT22;29963;44.594;11.368;2022-12-10T09:39:46;6.40;99.90
44271;DHT22;29963;44.594;11.368;2022-12-10T09:53:17;6.60;99.90
44271;DHT22;29963;44.594;11.368;2022-12-10T09:55:46;6.60;99.90
44271;DHT22;29963;44.594;11.368;2022-12-10T09:58:24;6.60;99.90
44271;DHT22;29963;44.594;11.368;2022-12-10T10:00:56;6.60;99.90
44271;DHT22;29963;44.594;11.368;2022-12-10T10:03:22;6.60;99.90
44271;DHT22;29963;44.594;11.368;2022-12-10T10:05:50;6.60;99.90
44271;DHT22;29963;44.594;11.368;2022-12-10T10:08:36;6.50;99.90
44271;DHT22;29963;44.594;11.368;2022-12-10T10:11:04;6.50;99.90
44271;DHT22;29963;44.594;11.368;2022-12-10T10:13:41;6.50;99.90
44271;DHT22;29963;44.594;11.368;2022-12-10T10:16:34;6.60;99.90
44271;DHT22;29963;44.594;11.368;2022-12-10T10:19:04;6.60;99.90
44271;DHT22;29963;44.594;11.368;2022-12-10T10:21:45;6.60;99.90
44271;DHT22;29963;44.594;11.368;2022-12-10T10:24:21;6.60;99.90
44271;DHT22;29963;44.594;11.368;2022-12-10T10:26:47;6.70;99.90
44271;DHT22;29963;44.594;11.368;2022-12-10T10:29:17;6.60;99.90
44271;DHT22;29963;44.594;11.368;2022-12-10T10:31:44;6.70;99.90
44271;DHT22;29963;44.594;11.368;2022-12-10T10:34:19;6.70;99.90
44271;DHT22;29963;44.594;11.368;2022-12-10T10:36:45;6.70;99.90
44271;DHT22;29963;44.594;11.368;2022-12-10T10:41:44;6.70;99.90
44271;DHT22;29963;44.594;11.368;2022-12-10T10:44:19;6.70;99.90
44271;DHT22;29963;44.594;11.368;2022-12-10T10:46:48;6.70;99.90
44271;DHT22;29963;44.594;11.368;2022-12-10T10:51:43;6.70;99.90
44271;DHT22;29963;44.594;11.368;2022-12-10T10:54:11;6.70;99.90
44271;DHT22;29963;44.594;11.368;2022-12-10T10:56:43;6.70;99.90
44271;DHT22;29963;44.594;11.368;2022-12-10T11:01:55;6.70;99.90
44271;DHT22;29963;44.594;11.368;2022-12-10T11:04:30;6.70;99.90
44271;DHT22;29963;44.594;11.368;2022-12-10T11:07:03;6.70;99.90
44271;DHT22;29963;44.594;11.368;2022-12-10T11:09:32;6.70;99.90
44271;DHT22;29963;44.594;11.368;2022-12-10T11:12:01;6.80;99.90
44271;DHT22;29963;44.594;11.368;2022-12-10T11:14:33;6.80;99.90
44271;DHT22;29963;44.594;11.368;2022-12-10T11:17:18;6.80;99.90
44271;DHT22;29963;44.594;11.368;2022-12-10T11:19:58;6.80;99.90
44271;DHT22;29963;44.594;11.368;2022-12-10T11:22:29;6.80;99.90
44271;DHT22;29963;44.594;11.368;2022-12-10T11:24:55;6.90;99.90
44271;DHT22;29963;44.594;11.368;2022-12-10T11:32:48;6.90;99.90
44271;DHT22;29963;44.594;11.368;2022-12-10T11:38:28;6.90;99.90
44271;DHT22;29963;44.594;11.368;2022-12-10T11:46:53;6.90;99.90
44271;DHT22;29963;44.594;11.368;2022-12-10T11:49:42;6.80;99.90
44271;DHT22;29963;44.594;11.368;2022-12-10T11:52:41;6.90;99.90
44271;DHT22;29963;44.594;11.368;2022-12-10T11:58:09;7.00;99.90
44271;DHT22;29963;44.594;11.368;2022-12-10T12:00:56;7.00;99.90
44271;DHT22;29963;44.594;11.368;2022-12-10T12:08:53;7.00;99.90
44271;DHT22;29963;44.594;11.368;2022-12-10T12:11:42;7.00;99.90
44271;DHT22;29963;44.594;11.368;2022-12-10T12:14:22;7.00;99.90
44271;DHT22;29963;44.594;11.368;2022-12-10T12:17:09;6.90;99.90
44271;DHT22;29963;44.594;11.368;2022-12-10T12:19:58;6.90;99.90
44271;DHT22;29963;44.594;11.368;2022-12-10T12:22:29;6.90;99.90
44271;DHT22;29963;44.594;11.368;2022-12-10T12:25:15;7.00;99.90
44271;DHT22;29963;44.594;11.368;2022-12-10T12:27:57;7.10;99.90
44271;DHT22;29963;44.594;11.368;2022-12-10T12:30:25;7.00;99.90
44271;DHT22;29963;44.594;11.368;2022-12-10T12:33:00;7.10;99.90
44271;DHT22;29963;44.594;11.368;2022-12-10T12:35:50;7.10;99.90
44271;DHT22;29963;44.594;11.368;2022-12-10T12:38:31;7.10;99.90
44271;DHT22;29963;44.594;11.368;2022-12-10T12:41:20;7.10;99.90
44271;DHT22;29963;44.594;11.368;2022-12-10T12:44:07;7.00;99.90
44271;DHT22;29963;44.594;11.368;2022-12-10T12:46:40;7.00;99.90
44271;DHT22;29963;44.594;11.368;2022-12-10T12:49:34;7.00;99.90
44271;DHT22;29963;44.594;11.368;2022-12-10T12:52:28;7.10;99.90
44271;DHT22;29963;44.594;11.368;2022-12-10T12:55:01;7.00;99.90
44271;DHT22;29963;44.594;11.368;2022-12-10T12:57:45;7.10;99.90
44271;DHT22;29963;44.594;11.368;2022-12-10T13:00:15;7.10;99.90
44271;DHT22;29963;44.594;11.368;2022-12-10T13:05:38;7.10;99.90
44271;DHT22;29963;44.594;11.368;2022-12-10T13:10:45;7.10;99.90
44271;DHT22;29963;44.594;11.368;2022-12-10T13:13:35;7.10;99.90
44271;DHT22;29963;44.594;11.368;2022-12-10T13:43:23;6.90;99.90
44271;DHT22;29963;44.594;11.368;2022-12-10T13:46:33;6.90;99.90
44271;DHT22;29963;44.594;11.368;2022-12-10T13:49:03;7.00;99.90
44271;DHT22;29963;44.594;11.368;2022-12-10T13:52:22;7.00;99.90
44271;DHT22;29963;44.594;11.368;2022-12-10T13:57:30;7.10;99.90
44271;DHT22;29963;44.594;11.368;2022-12-10T14:05:50;7.10;99.90
44271;DHT22;29963;44.594;11.368;2022-12-10T14:08:28;7.10;99.90
44271;DHT22;29963;44.594;11.368;2022-12-10T14:10:56;7.10;99.90
44271;DHT22;29963;44.594;11.368;2022-12-10T14:13:32;7.10;99.90
44271;DHT22;29963;44.594;11.368;2022-12-10T14:16:00;7.10;99.90
44271;DHT22;29963;44.594;11.368;2022-12-10T14:18:27;7.10;99.90
44271;DHT22;29963;44.594;11.368;2022-12-10T14:20:55;7.10;99.90
44271;DHT22;29963;44.594;11.368;2022-12-10T14:23:29;7.10;99.90
44271;DHT22;29963;44.594;11.368;2022-12-10T14:26:11;7.10;99.90
44271;DHT22;29963;44.594;11.368;2022-12-10T14:28:42;7.20;99.90
44271;DHT22;29963;44.594;11.368;2022-12-10T14:31:27;7.20;99.90
44271;DHT22;29963;44.594;11.368;2022-12-10T14:33:57;7.20;99.90
44271;DHT22;29963;44.594;11.368;2022-12-10T14:36:36;7.20;99.90
44271;DHT22;29963;44.594;11.368;2022-12-10T14:39:04;7.20;99.90
44271;DHT22;29963;44.594;11.368;2022-12-10T14:41:35;7.20;99.90
44271;DHT22;29963;44.594;11.368;2022-12-10T14:44:02;7.20;99.90
44271;DHT22;29963;44.594;11.368;2022-12-10T14:46:31;7.20;99.90
44271;DHT22;29963;44.594;11.368;2022-12-10T14:48:58;7.20;99.90
44271;DHT22;29963;44.594;11.368;2022-12-10T14:51:30;7.20;99.90
44271;DHT22;29963;44.594;11.368;2022-12-10T14:53:56;7.30;99.90
44271;DHT22;29963;44.594;11.368;2022-12-10T14:56:26;7.20;99.90
44271;DHT22;29963;44.594;11.368;2022-12-10T15:01:35;7.30;99.90
44271;DHT22;29963;44.594;11.368;2022-12-10T15:04:05;7.30;99.90
44271;DHT22;29963;44.594;11.368;2022-12-10T15:06:35;7.30;99.90
44271;DHT22;29963;44.594;11.368;2022-12-10T15:09:02;7.30;99.90
44271;DHT22;29963;44.594;11.368;2022-12-10T15:11:29;7.20;99.90
44271;DHT22;29963;44.594;11.368;2022-12-10T15:13:58;7.20;99.90
44271;DHT22;29963;44.594;11.368;2022-12-10T15:18:53;7.30;99.90
44271;DHT22;29963;44.594;11.368;2022-12-10T15:21:22;7.30;99.90
44271;DHT22;29963;44.594;11.368;2022-12-10T15:23:49;7.30;99.90
44271;DHT22;29963;44.594;11.368;2022-12-10T15:26:28;7.30;99.90
44271;DHT22;29963;44.594;11.368;2022-12-10T15:31:55;7.30;99.90
44271;DHT22;29963;44.594;11.368;2022-12-10T15:34:26;7.30;99.90
44271;DHT22;29963;44.594;11.368;2022-12-10T15:36:55;7.20;99.90
44271;DHT22;29963;44.594;11.368;2022-12-10T15:39:35;7.30;99.90
44271;DHT22;29963;44.594;11.368;2022-12-10T15:42:07;7.30;99.90
44271;DHT22;29963;44.594;11.368;2022-12-10T15:44:37;7.30;99.90
44271;DHT22;29963;44.594;11.368;2022-12-10T15:47:26;7.30;99.90
44271;DHT22;29963;44.594;11.368;2022-12-10T15:49:54;7.30;99.90
44271;DHT22;29963;44.594;11.368;2022-12-10T15:52:23;7.30;99.90
44271;DHT22;29963;44.594;11.368;2022-12-10T15:54:51;7.30;99.90
44271;DHT22;29963;44.594;11.368;2022-12-10T15:57:18;7.30;99.90
44271;DHT22;29963;44.594;11.368;2022-12-10T15:59:46;7.30;99.90
44271;DHT22;29963;44.594;11.368;2022-12-10T16:04:47;7.30;99.90
44271;DHT22;29963;44.594;11.368;2022-12-10T16:07:12;7.30;99.90
44271;DHT22;29963;44.594;11.368;2022-12-10T16:09:41;7.30;99.90
44271;DHT22;29963;44.594;11.368;2022-12-10T16:12:09;7.40;99.90
44271;DHT22;29963;44.594;11.368;2022-12-10T16:14:36;7.40;99.90
44271;DHT22;29963;44.594;11.368;2022-12-10T16:17:02;7.40;99.90
44271;DHT22;29963;44.594;11.368;2022-12-10T16:19:28;7.40;99.90
44271;DHT22;29963;44.594;11.368;2022-12-10T16:21:53;7.40;99.90
44271;DHT22;29963;44.594;11.368;2022-12-10T16:24:19;7.40;99.90
44271;DHT22;29963;44.594;11.368;2022-12-10T16:26:45;7.40;99.90
44271;DHT22;29963;44.594;11.368;2022-12-10T16:29:11;7.40;99.90
44271;DHT22;29963;44.594;11.368;2022-12-10T16:31:36;7.40;99.90
44271;DHT22;29963;44.594;11.368;2022-12-10T16:34:02;7.40;99.90
44271;DHT22;29963;44.594;11.368;2022-12-10T16:36:28;7.40;99.90
44271;DHT22;29963;44.594;11.368;2022-12-10T16:38:53;7.40;99.90
44271;DHT22;29963;44.594;11.368;2022-12-10T16:41:22;7.30;99.90
44271;DHT22;29963;44.594;11.368;2022-12-10T16:43:48;7.40;99.90
44271;DHT22;29963;44.594;11.368;2022-12-10T16:46:14;7.30;99.90
44271;DHT22;29963;44.594;11.368;2022-12-10T16:48:40;7.30;99.90
44271;DHT22;29963;44.594;11.368;2022-12-10T16:51:22;7.30;99.90
44271;DHT22;29963;44.594;11.368;2022-12-10T16:53:48;7.30;99.90
44271;DHT22;29963;44.594;11.368;2022-12-10T16:56:14;7.40;99.90
44271;DHT22;29963;44.594;11.368;2022-12-10T16:58:41;7.30;99.90
44271;DHT22;29963;44.594;11.368;2022-12-10T17:01:26;7.30;99.90
44271;DHT22;29963;44.594;11.368;2022-12-10T17:03:57;7.40;99.90
44271;DHT22;29963;44.594;11.368;2022-12-10T17:06:24;7.40;99.90
44271;DHT22;29963;44.594;11.368;2022-12-10T17:08:50;7.40;99.90
44271;DHT22;29963;44.594;11.368;2022-12-10T17:11:38;7.40;99.90
44271;DHT22;29963;44.594;11.368;2022-12-10T17:14:25;7.30;99.90
44271;DHT22;29963;44.594;11.368;2022-12-10T17:16:53;7.40;99.90
44271;DHT22;29963;44.594;11.368;2022-12-10T17:19:21;7.40;99.90
44271;DHT22;29963;44.594;11.368;2022-12-10T17:21:46;7.40;99.90
44271;DHT22;29963;44.594;11.368;2022-12-10T17:24:12;7.40;99.90
44271;DHT22;29963;44.594;11.368;2022-12-10T17:26:40;7.40;99.90
44271;DHT22;29963;44.594;11.368;2022-12-10T17:29:19;7.40;99.90
44271;DHT22;29963;44.594;11.368;2022-12-10T17:31:46;7.30;99.90